sensor_id;sensor_type;location;lat;lon;timestamp;pressure;altitude;pressure_sealevel;temperature;humidity
62031;BME280;62035;52.094;5.112;2023-04-01T00:00:37;99168.50;;;11.00;100.00
62031;BME280;62035;52.094;5.112;2023-04-01T00:03:05;99168.44;;;10.93;100.00
62031;BME280;62035;52.094;5.112;2023-04-01T00:05:33;99172.00;;;11.00;100.00
62031;BME280;62035;52.094;5.112;2023-04-01T00:08:02;99177.63;;;10.91;100.00
62031;BME280;62035;52.094;5.112;2023-04-01T00:10:30;99180.13;;;10.92;100.00
62031;BME280;62035;52.094;5.112;2023-04-01T00:12:57;99189.09;;;10.91;100.00
62031;BME280;62035;52.094;5.112;2023-04-01T00:15:25;99188.78;;;10.80;100.00
62031;BME280;62035;52.094;5.112;2023-04-01T00:17:53;99184.94;;;10.82;100.00
62031;BME280;62035;52.094;5.112;2023-04-01T00:20:21;99188.00;;;10.79;100.00
62031;BME280;62035;52.094;5.112;2023-04-01T00:22:49;99182.06;;;10.84;100.00
62031;BME280;62035;52.094;5.112;2023-04-01T00:25:18;99185.19;;;10.87;100.00
62031;BME280;62035;52.094;5.112;2023-04-01T00:27:46;99183.72;;;10.85;100.00
62031;BME280;62035;52.094;5.112;2023-04-01T00:30:14;99186.91;;;10.74;100.00
62031;BME280;62035;52.094;5.112;2023-04-01T00:32:42;99188.19;;;10.78;100.00
62031;BME280;62035;52.094;5.112;2023-04-01T00:35:10;99185.28;;;10.73;100.00
62031;BME280;62035;52.094;5.112;2023-04-01T00:37:38;99187.53;;;10.54;100.00
62031;BME280;62035;52.094;5.112;2023-04-01T00:40:08;99190.16;;;10.69;100.00
62031;BME280;62035;52.094;5.112;2023-04-01T00:42:52;99189.13;;;10.70;100.00
62031;BME280;62035;52.094;5.112;2023-04-01T00:45:27;99188.63;;;10.60;100.00
62031;BME280;62035;52.094;5.112;2023-04-01T00:47:59;99202.41;;;10.49;100.00
62031;BME280;62035;52.094;5.112;2023-04-01T00:50:32;99206.28;;;10.46;100.00
62031;BME280;62035;52.094;5.112;2023-04-01T00:53:02;99206.47;;;10.45;100.00
62031;BME280;62035;52.094;5.112;2023-04-01T00:55:35;99211.72;;;10.38;100.00
62031;BME280;62035;52.094;5.112;2023-04-01T00:58:09;99214.81;;;10.42;100.00
62031;BME280;62035;52.094;5.112;2023-04-01T01:00:41;99211.09;;;10.36;100.00
62031;BME280;62035;52.094;5.112;2023-04-01T01:03:10;99212.84;;;10.29;100.00
62031;BME280;62035;52.094;5.112;2023-04-01T01:05:53;99216.25;;;10.23;100.00
62031;BME280;62035;52.094;5.112;2023-04-01T01:08:39;99217.59;;;10.19;100.00
62031;BME280;62035;52.094;5.112;2023-04-01T01:11:23;99210.09;;;10.08;100.00
62031;BME280;62035;52.094;5.112;2023-04-01T01:14:01;99214.31;;;10.17;100.00
62031;BME280;62035;52.094;5.112;2023-04-01T01:16:39;99213.31;;;10.03;100.00
62031;BME280;62035;52.094;5.112;2023-04-01T01:19:31;99214.06;;;9.97;100.00
62031;BME280;62035;52.094;5.112;2023-04-01T01:22:36;99220.84;;;9.99;100.00
62031;BME280;62035;52.094;5.112;2023-04-01T01:25:25;99224.63;;;9.90;100.00
62031;BME280;62035;52.094;5.112;2023-04-01T01:28:19;99219.00;;;10.00;100.00
62031;BME280;62035;52.094;5.112;2023-04-01T01:31:03;99219.25;;;10.05;100.00
62031;BME280;62035;52.094;5.112;2023-04-01T01:34:02;99220.84;;;9.99;100.00
62031;BME280;62035;52.094;5.112;2023-04-01T01:36:42;99221.91;;;10.05;100.00
62031;BME280;62035;52.094;5.112;2023-04-01T01:39:14;99218.19;;;9.99;100.00
62031;BME280;62035;52.094;5.112;2023-04-01T01:41:45;99225.84;;;10.09;100.00
62031;BME280;62035;52.094;5.112;2023-04-01T01:44:16;99230.06;;;10.03;100.00
62031;BME280;62035;52.094;5.112;2023-04-01T01:46:45;99227.78;;;10.00;100.00
62031;BME280;62035;52.094;5.112;2023-04-01T01:49:14;99221.56;;;10.08;100.00
62031;BME280;62035;52.094;5.112;2023-04-01T01:51:46;99231.38;;;10.08;100.00
62031;BME280;62035;52.094;5.112;2023-04-01T01:54:14;99233.50;;;9.97;100.00
62031;BME280;62035;52.094;5.112;2023-04-01T01:56:45;99232.50;;;9.98;100.00
62031;BME280;62035;52.094;5.112;2023-04-01T01:59:17;99236.69;;;10.08;100.00
62031;BME280;62035;52.094;5.112;2023-04-01T02:01:50;99238.13;;;10.10;100.00
62031;BME280;62035;52.094;5.112;2023-04-01T02:04:22;99237.53;;;9.93;100.00
62031;BME280;62035;52.094;5.112;2023-04-01T02:06:55;99241.94;;;9.86;100.00
62031;BME280;62035;52.094;5.112;2023-04-01T02:09:28;99242.47;;;9.82;100.00
62031;BME280;62035;52.094;5.112;2023-04-01T02:11:57;99242.47;;;9.96;100.00
62031;BME280;62035;52.094;5.112;2023-04-01T02:14:30;99242.84;;;9.93;100.00
62031;BME280;62035;52.094;5.112;2023-04-01T02:17:09;99253.19;;;9.88;100.00
62031;BME280;62035;52.094;5.112;2023-04-01T02:19:46;99256.50;;;9.90;100.00
62031;BME280;62035;52.094;5.112;2023-04-01T02:22:21;99252.19;;;9.75;100.00
62031;BME280;62035;52.094;5.112;2023-04-01T02:24:54;99256.31;;;9.92;100.00
62031;BME280;62035;52.094;5.112;2023-04-01T02:27:26;99268.22;;;9.96;100.00
62031;BME280;62035;52.094;5.112;2023-04-01T02:29:55;99265.44;;;10.04;100.00
62031;BME280;62035;52.094;5.112;2023-04-01T02:32:22;99257.50;;;9.89;100.00
62031;BME280;62035;52.094;5.112;2023-04-01T02:34:52;99261.31;;;10.01;100.00
62031;BME280;62035;52.094;5.112;2023-04-01T02:37:21;99264.75;;;9.95;100.00
62031;BME280;62035;52.094;5.112;2023-04-01T02:39:50;99264.16;;;10.00;100.00
62031;BME280;62035;52.094;5.112;2023-04-01T02:42:17;99260.88;;;10.13;100.00
62031;BME280;62035;52.094;5.112;2023-04-01T02:44:45;99259.06;;;9.98;100.00
62031;BME280;62035;52.094;5.112;2023-04-01T02:47:13;99272.53;;;9.82;100.00
62031;BME280;62035;52.094;5.112;2023-04-01T02:49:40;99265.91;;;10.08;100.00
62031;BME280;62035;52.094;5.112;2023-04-01T02:52:08;99267.09;;;10.05;100.00
62031;BME280;62035;52.094;5.112;2023-04-01T02:54:37;99277.84;;;9.97;100.00
62031;BME280;62035;52.094;5.112;2023-04-01T02:57:05;99275.84;;;9.99;100.00
62031;BME280;62035;52.094;5.112;2023-04-01T02:59:33;99288.81;;;10.09;100.00
62031;BME280;62035;52.094;5.112;2023-04-01T03:02:01;99282.53;;;9.95;100.00
62031;BME280;62035;52.094;5.112;2023-04-01T03:04:28;99286.47;;;9.99;100.00
62031;BME280;62035;52.094;5.112;2023-04-01T03:06:56;99289.50;;;9.96;100.00
62031;BME280;62035;52.094;5.112;2023-04-01T03:09:23;99298.09;;;9.98;100.00
62031;BME280;62035;52.094;5.112;2023-04-01T03:11:52;99299.28;;;9.95;100.00
62031;BME280;62035;52.094;5.112;2023-04-01T03:14:20;99301.94;;;9.95;100.00
62031;BME280;62035;52.094;5.112;2023-04-01T03:16:48;99306.69;;;10.00;100.00
62031;BME280;62035;52.094;5.112;2023-04-01T03:19:15;99309.94;;;9.95;100.00
62031;BME280;62035;52.094;5.112;2023-04-01T03:21:43;99309.94;;;9.95;100.00
62031;BME280;62035;52.094;5.112;2023-04-01T03:24:10;99317.59;;;10.05;100.00
62031;BME280;62035;52.094;5.112;2023-04-01T03:26:38;99322.19;;;10.11;100.00
62031;BME280;62035;52.094;5.112;2023-04-01T03:29:07;99331.75;;;10.20;100.00
62031;BME280;62035;52.094;5.112;2023-04-01T03:31:34;99327.00;;;10.30;100.00
62031;BME280;62035;52.094;5.112;2023-04-01T03:34:02;99330.13;;;10.34;100.00
62031;BME280;62035;52.094;5.112;2023-04-01T03:36:30;99337.72;;;10.37;100.00
62031;BME280;62035;52.094;5.112;2023-04-01T03:38:57;99336.72;;;10.38;100.00
62031;BME280;62035;52.094;5.112;2023-04-01T03:41:25;99342.22;;;10.22;100.00
62031;BME280;62035;52.094;5.112;2023-04-01T03:43:53;99339.75;;;10.35;100.00
62031;BME280;62035;52.094;5.112;2023-04-01T03:46:22;99343.28;;;10.42;100.00
62031;BME280;62035;52.094;5.112;2023-04-01T03:48:50;99345.31;;;10.40;100.00
62031;BME280;62035;52.094;5.112;2023-04-01T03:51:17;99351.53;;;10.47;100.00
62031;BME280;62035;52.094;5.112;2023-04-01T03:53:45;99353.09;;;10.42;100.00
62031;BME280;62035;52.094;5.112;2023-04-01T03:56:13;99358.34;;;10.35;100.00
62031;BME280;62035;52.094;5.112;2023-04-01T03:58:40;99360.25;;;10.41;100.00
62031;BME280;62035;52.094;5.112;2023-04-01T04:01:15;99359.25;;;10.42;100.00
62031;BME280;62035;52.094;5.112;2023-04-01T04:03:45;99365.66;;;10.48;100.00
62031;BME280;62035;52.094;5.112;2023-04-01T04:06:17;99369.16;;;10.48;100.00
62031;BME280;62035;52.094;5.112;2023-04-01T04:08:45;99377.50;;;10.45;100.00
62031;BME280;62035;52.094;5.112;2023-04-01T04:11:13;99375.59;;;10.39;100.00
62031;BME280;62035;52.094;5.112;2023-04-01T04:13:41;99383.34;;;10.41;100.00
62031;BME280;62035;52.094;5.112;2023-04-01T04:16:09;99383.00;;;10.44;100.00
62031;BME280;62035;52.094;5.112;2023-04-01T04:18:37;99397.47;;;10.41;100.00
62031;BME280;62035;52.094;5.112;2023-04-01T04:21:06;99388.41;;;10.50;100.00
62031;BME280;62035;52.094;5.112;2023-04-01T04:23:34;99405.84;;;10.53;100.00
62031;BME280;62035;52.094;5.112;2023-04-01T04:26:05;99406.84;;;10.52;100.00
62031;BME280;62035;52.094;5.112;2023-04-01T04:28:34;99409.78;;;10.57;100.00
62031;BME280;62035;52.094;5.112;2023-04-01T04:31:02;99414.91;;;10.58;100.00
62031;BME280;62035;52.094;5.112;2023-04-01T04:33:30;99419.59;;;10.56;100.00
62031;BME280;62035;52.094;5.112;2023-04-01T04:35:59;99415.56;;;10.60;100.00
62031;BME280;62035;52.094;5.112;2023-04-01T04:38:28;99422.25;;;10.56;100.00
62031;BME280;62035;52.094;5.112;2023-04-01T04:40:56;99435.38;;;10.58;100.00
62031;BME280;62035;52.094;5.112;2023-04-01T04:43:23;99430.69;;;10.60;100.00
62031;BME280;62035;52.094;5.112;2023-04-01T04:45:51;99436.66;;;10.62;100.00
62031;BME280;62035;52.094;5.112;2023-04-01T04:48:19;99432.16;;;10.62;100.00
62031;BME280;62035;52.094;5.112;2023-04-01T04:50:47;99431.97;;;10.64;100.00
62031;BME280;62035;52.094;5.112;2023-04-01T04:53:18;99440.06;;;10.71;100.00
62031;BME280;62035;52.094;5.112;2023-04-01T04:55:49;99446.56;;;10.68;100.00
62031;BME280;62035;52.094;5.112;2023-04-01T04:58:17;99462.00;;;10.73;100.00
62031;BME280;62035;52.094;5.112;2023-04-01T05:00:45;99466.19;;;10.67;100.00
62031;BME280;62035;52.094;5.112;2023-04-01T05:03:13;99460.69;;;10.68;100.00
62031;BME280;62035;52.094;5.112;2023-04-01T05:05:48;99473.09;;;10.76;100.00
62031;BME280;62035;52.094;5.112;2023-04-01T05:08:17;99468.22;;;10.65;100.00
62031;BME280;62035;52.094;5.112;2023-04-01T05:10:45;99481.53;;;10.65;100.00
62031;BME280;62035;52.094;5.112;2023-04-01T05:13:14;99482.09;;;10.75;100.00
62031;BME280;62035;52.094;5.112;2023-04-01T05:15:42;99482.44;;;10.72;100.00
62031;BME280;62035;52.094;5.112;2023-04-01T05:18:09;99482.81;;;10.69;100.00
62031;BME280;62035;52.094;5.112;2023-04-01T05:20:37;99497.38;;;10.58;100.00
62031;BME280;62035;52.094;5.112;2023-04-01T05:23:04;99497.31;;;10.66;100.00
62031;BME280;62035;52.094;5.112;2023-04-01T05:25:32;99502.91;;;10.72;100.00
62031;BME280;62035;52.094;5.112;2023-04-01T05:28:00;99502.91;;;10.72;100.00
62031;BME280;62035;52.094;5.112;2023-04-01T05:30:28;99507.03;;;10.74;100.00
62031;BME280;62035;52.094;5.112;2023-04-01T05:32:56;99508.69;;;10.75;100.00
62031;BME280;62035;52.094;5.112;2023-04-01T05:35:24;99523.91;;;10.81;100.00
62031;BME280;62035;52.094;5.112;2023-04-01T05:37:51;99521.00;;;10.76;100.00
62031;BME280;62035;52.094;5.112;2023-04-01T05:40:19;99527.03;;;10.70;100.00
62031;BME280;62035;52.094;5.112;2023-04-01T05:42:47;99529.41;;;10.65;100.00
62031;BME280;62035;52.094;5.112;2023-04-01T05:45:15;99536.47;;;10.58;100.00
62031;BME280;62035;52.094;5.112;2023-04-01T05:47:44;99531.69;;;10.53;100.00
62031;BME280;62035;52.094;5.112;2023-04-01T05:50:11;99539.59;;;10.61;100.00
62031;BME280;62035;52.094;5.112;2023-04-01T05:52:39;99543.53;;;10.65;100.00
62031;BME280;62035;52.094;5.112;2023-04-01T05:55:08;99536.38;;;10.66;100.00
62031;BME280;62035;52.094;5.112;2023-04-01T05:57:36;99536.66;;;10.56;100.00
62031;BME280;62035;52.094;5.112;2023-04-01T06:00:04;99548.94;;;10.57;100.00
62031;BME280;62035;52.094;5.112;2023-04-01T06:02:33;99546.00;;;10.52;100.00
62031;BME280;62035;52.094;5.112;2023-04-01T06:05:12;99553.69;;;10.47;100.00
62031;BME280;62035;52.094;5.112;2023-04-01T06:07:43;99551.66;;;10.49;100.00
62031;BME280;62035;52.094;5.112;2023-04-01T06:10:15;99568.91;;;10.53;100.00
62031;BME280;62035;52.094;5.112;2023-04-01T06:12:50;99560.28;;;10.51;100.00
62031;BME280;62035;52.094;5.112;2023-04-01T06:15:33;99565.25;;;10.54;100.00
62031;BME280;62035;52.094;5.112;2023-04-01T06:18:30;99570.56;;;10.40;100.00
62031;BME280;62035;52.094;5.112;2023-04-01T06:24:57;99584.13;;;10.45;100.00
62031;BME280;62035;52.094;5.112;2023-04-01T06:27:46;99595.56;;;10.30;100.00
62031;BME280;62035;52.094;5.112;2023-04-01T06:30:41;99596.09;;;10.26;100.00
62031;BME280;62035;52.094;5.112;2023-04-01T06:33:36;99596.38;;;10.31;100.00
62031;BME280;62035;52.094;5.112;2023-04-01T06:36:36;99602.34;;;10.33;100.00
62031;BME280;62035;52.094;5.112;2023-04-01T06:39:34;99611.81;;;10.35;100.00
62031;BME280;62035;52.094;5.112;2023-04-01T06:42:24;99627.75;;;10.35;100.00
62031;BME280;62035;52.094;5.112;2023-04-01T06:45:14;99628.13;;;10.32;100.00
62031;BME280;62035;52.094;5.112;2023-04-01T06:48:10;99632.78;;;10.30;100.00
62031;BME280;62035;52.094;5.112;2023-04-01T06:50:54;99638.41;;;10.35;100.00
62031;BME280;62035;52.094;5.112;2023-04-01T06:53:33;99637.09;;;10.31;100.00
62031;BME280;62035;52.094;5.112;2023-04-01T06:56:10;99627.47;;;10.30;100.00
62031;BME280;62035;52.094;5.112;2023-04-01T06:58:43;99650.88;;;10.35;100.00
62031;BME280;62035;52.094;5.112;2023-04-01T07:01:20;99640.50;;;10.40;100.00
62031;BME280;62035;52.094;5.112;2023-04-01T07:03:53;99654.53;;;10.34;100.00
62031;BME280;62035;52.094;5.112;2023-04-01T07:06:27;99653.34;;;10.37;100.00
62031;BME280;62035;52.094;5.112;2023-04-01T07:09:03;99662.44;;;10.42;100.00
62031;BME280;62035;52.094;5.112;2023-04-01T07:11:37;99668.41;;;10.44;100.00
62031;BME280;62035;52.094;5.112;2023-04-01T07:14:13;99670.31;;;10.35;100.00
62031;BME280;62035;52.094;5.112;2023-04-01T07:16:49;99673.72;;;10.44;100.00
62031;BME280;62035;52.094;5.112;2023-04-01T07:19:25;99683.72;;;10.42;100.00
62031;BME280;62035;52.094;5.112;2023-04-01T07:22:00;99689.69;;;10.44;100.00
62031;BME280;62035;52.094;5.112;2023-04-01T07:24:34;99674.97;;;10.33;100.00
62031;BME280;62035;52.094;5.112;2023-04-01T07:27:08;99693.69;;;10.40;100.00
62031;BME280;62035;52.094;5.112;2023-04-01T07:29:37;99697.31;;;10.47;100.00
62031;BME280;62035;52.094;5.112;2023-04-01T07:32:23;99699.31;;;10.45;100.00
62031;BME280;62035;52.094;5.112;2023-04-01T07:35:11;99718.25;;;10.50;100.00
62031;BME280;62035;52.094;5.112;2023-04-01T07:37:55;99718.41;;;10.49;100.00
62031;BME280;62035;52.094;5.112;2023-04-01T07:40:40;99711.91;;;10.51;100.00
62031;BME280;62035;52.094;5.112;2023-04-01T07:43:30;99710.22;;;10.58;100.00
62031;BME280;62035;52.094;5.112;2023-04-01T07:46:15;99712.97;;;10.42;100.00
62031;BME280;62035;52.094;5.112;2023-04-01T07:49:01;99731.22;;;10.45;100.00
62031;BME280;62035;52.094;5.112;2023-04-01T07:51:38;99740.16;;;10.52;100.00
62031;BME280;62035;52.094;5.112;2023-04-01T07:54:18;99735.72;;;10.45;100.00
62031;BME280;62035;52.094;5.112;2023-04-01T07:57:00;99739.72;;;10.41;100.00
62031;BME280;62035;52.094;5.112;2023-04-01T07:59:42;99746.84;;;10.48;100.00
62031;BME280;62035;52.094;5.112;2023-04-01T08:02:30;99749.25;;;10.66;100.00
62031;BME280;62035;52.094;5.112;2023-04-01T08:05:19;99747.81;;;10.55;100.00
62031;BME280;62035;52.094;5.112;2023-04-01T08:07:59;99738.50;;;10.51;100.00
62031;BME280;62035;52.094;5.112;2023-04-01T08:10:41;99762.59;;;10.58;100.00
62031;BME280;62035;52.094;5.112;2023-04-01T08:13:24;99766.56;;;10.62;100.00
62031;BME280;62035;52.094;5.112;2023-04-01T08:16:09;99766.56;;;10.62;100.00
62031;BME280;62035;52.094;5.112;2023-04-01T08:18:47;99773.88;;;10.60;100.00
62031;BME280;62035;52.094;5.112;2023-04-01T08:21:24;99764.47;;;10.49;100.00
62031;BME280;62035;52.094;5.112;2023-04-01T08:23:57;99770.56;;;10.58;100.00
62031;BME280;62035;52.094;5.112;2023-04-01T08:26:34;99779.72;;;10.55;100.00
62031;BME280;62035;52.094;5.112;2023-04-01T08:29:11;99783.38;;;10.54;100.00
62031;BME280;62035;52.094;5.112;2023-04-01T08:31:51;99789.06;;;10.51;100.00
62031;BME280;62035;52.094;5.112;2023-04-01T08:34:24;99790.50;;;10.62;100.00
62031;BME280;62035;52.094;5.112;2023-04-01T08:37:00;99788.94;;;10.76;100.00
62031;BME280;62035;52.094;5.112;2023-04-01T08:39:34;99784.31;;;10.69;100.00
62031;BME280;62035;52.094;5.112;2023-04-01T08:42:40;99807.38;;;10.77;100.00
62031;BME280;62035;52.094;5.112;2023-04-01T08:45:30;99817.59;;;10.88;100.00
62031;BME280;62035;52.094;5.112;2023-04-01T08:48:22;99816.44;;;10.91;100.00
62031;BME280;62035;52.094;5.112;2023-04-01T08:51:21;99818.78;;;10.86;100.00
62031;BME280;62035;52.094;5.112;2023-04-01T08:54:24;99821.56;;;10.92;100.00
62031;BME280;62035;52.094;5.112;2023-04-01T08:57:08;99827.19;;;10.97;100.00
62031;BME280;62035;52.094;5.112;2023-04-01T08:59:58;99828.75;;;11.15;100.00
62031;BME280;62035;52.094;5.112;2023-04-01T09:02:48;99826.56;;;11.18;100.00
62031;BME280;62035;52.094;5.112;2023-04-01T09:05:32;99832.91;;;11.17;100.00
62031;BME280;62035;52.094;5.112;2023-04-01T09:08:23;99833.13;;;11.30;100.00
62031;BME280;62035;52.094;5.112;2023-04-01T09:11:17;99837.00;;;11.20;100.00
62031;BME280;62035;52.094;5.112;2023-04-01T09:14:26;99841.94;;;11.31;100.00
62031;BME280;62035;52.094;5.112;2023-04-01T09:17:30;99840.09;;;11.31;100.00
62031;BME280;62035;52.094;5.112;2023-04-01T09:20:27;99854.31;;;11.47;100.00
62031;BME280;62035;52.094;5.112;2023-04-01T09:23:26;99846.09;;;11.71;100.00
62031;BME280;62035;52.094;5.112;2023-04-01T09:26:28;99853.25;;;11.70;100.00
62031;BME280;62035;52.094;5.112;2023-04-01T09:29:22;99857.56;;;11.57;100.00
62031;BME280;62035;52.094;5.112;2023-04-01T09:32:16;99839.31;;;11.46;100.00
62031;BME280;62035;52.094;5.112;2023-04-01T09:35:20;99862.59;;;11.52;100.00
62031;BME280;62035;52.094;5.112;2023-04-01T09:38:20;99862.41;;;11.53;100.00
62031;BME280;62035;52.094;5.112;2023-04-01T09:40:55;99864.91;;;11.55;100.00
62031;BME280;62035;52.094;5.112;2023-04-01T09:43:29;99865.09;;;11.68;100.00
62031;BME280;62035;52.094;5.112;2023-04-01T09:46:19;99876.78;;;11.90;100.00
62031;BME280;62035;52.094;5.112;2023-04-01T09:49:23;99872.72;;;11.71;100.00
62031;BME280;62035;52.094;5.112;2023-04-01T09:52:26;99880.56;;;11.73;100.00
62031;BME280;62035;52.094;5.112;2023-04-01T09:55:24;99885.03;;;11.80;100.00
62031;BME280;62035;52.094;5.112;2023-04-01T09:58:34;99880.44;;;11.89;100.00
62031;BME280;62035;52.094;5.112;2023-04-01T10:01:39;99893.97;;;12.02;100.00
62031;BME280;62035;52.094;5.112;2023-04-01T10:08:00;99884.06;;;12.25;100.00
62031;BME280;62035;52.094;5.112;2023-04-01T10:15:00;99894.00;;;12.61;100.00
62031;BME280;62035;52.094;5.112;2023-04-01T10:18:35;99896.00;;;12.44;100.00
62031;BME280;62035;52.094;5.112;2023-04-01T10:28:46;99895.66;;;12.47;100.00
62031;BME280;62035;52.094;5.112;2023-04-01T10:31:53;99901.72;;;12.41;100.00
62031;BME280;62035;52.094;5.112;2023-04-01T10:38:22;99906.69;;;12.15;100.00
62031;BME280;62035;52.094;5.112;2023-04-01T10:45:03;99931.22;;;11.95;100.00
62031;BME280;62035;52.094;5.112;2023-04-01T10:48:23;99926.75;;;11.65;100.00
62031;BME280;62035;52.094;5.112;2023-04-01T10:51:20;99941.16;;;11.56;100.00
62031;BME280;62035;52.094;5.112;2023-04-01T10:54:40;99939.06;;;11.66;100.00
62031;BME280;62035;52.094;5.112;2023-04-01T10:57:33;99948.44;;;11.62;100.00
62031;BME280;62035;52.094;5.112;2023-04-01T11:01:11;99955.22;;;11.95;100.00
62031;BME280;62035;52.094;5.112;2023-04-01T11:04:40;99946.81;;;12.36;100.00
62031;BME280;62035;52.094;5.112;2023-04-01T11:14:51;99949.44;;;13.10;100.00
62031;BME280;62035;52.094;5.112;2023-04-01T11:18:01;99955.91;;;12.86;100.00
62031;BME280;62035;52.094;5.112;2023-04-01T11:21:21;99957.19;;;12.90;100.00
62031;BME280;62035;52.094;5.112;2023-04-01T11:24:34;99963.19;;;12.92;100.00
62031;BME280;62035;52.094;5.112;2023-04-01T11:27:56;99966.50;;;12.94;100.00
62031;BME280;62035;52.094;5.112;2023-04-01T11:31:02;99965.75;;;13.15;100.00
62031;BME280;62035;52.094;5.112;2023-04-01T11:33:49;99963.00;;;12.93;100.00
62031;BME280;62035;52.094;5.112;2023-04-01T11:36:33;99971.84;;;12.94;100.00
62031;BME280;62035;52.094;5.112;2023-04-01T11:39:17;99975.91;;;12.90;100.00
62031;BME280;62035;52.094;5.112;2023-04-01T11:42:01;99974.25;;;12.89;100.00
62031;BME280;62035;52.094;5.112;2023-04-01T11:44:51;99985.19;;;13.09;100.00
62031;BME280;62035;52.094;5.112;2023-04-01T11:47:49;99988.28;;;13.42;100.00
62031;BME280;62035;52.094;5.112;2023-04-01T11:50:44;99990.84;;;13.50;100.00
62031;BME280;62035;52.094;5.112;2023-04-01T11:53:44;99995.91;;;13.59;100.00
62031;BME280;62035;52.094;5.112;2023-04-01T11:56:31;99986.72;;;13.32;100.00
62031;BME280;62035;52.094;5.112;2023-04-01T12:02:44;100001.59;;;12.76;100.00
62031;BME280;62035;52.094;5.112;2023-04-01T12:05:38;100015.31;;;12.88;100.00
62031;BME280;62035;52.094;5.112;2023-04-01T12:08:24;100021.38;;;12.82;100.00
62031;BME280;62035;52.094;5.112;2023-04-01T12:11:06;100023.97;;;12.75;100.00
62031;BME280;62035;52.094;5.112;2023-04-01T12:13:49;100030.13;;;12.90;100.00
62031;BME280;62035;52.094;5.112;2023-04-01T12:16:34;100036.97;;;13.08;100.00
62031;BME280;62035;52.094;5.112;2023-04-01T12:19:16;100040.53;;;13.29;100.00
62031;BME280;62035;52.094;5.112;2023-04-01T12:22:06;100030.13;;;13.20;100.00
62031;BME280;62035;52.094;5.112;2023-04-01T12:24:47;100034.66;;;12.90;100.00
62031;BME280;62035;52.094;5.112;2023-04-01T12:27:41;100033.53;;;12.69;100.00
62031;BME280;62035;52.094;5.112;2023-04-01T12:30:30;100051.22;;;12.71;100.00
62031;BME280;62035;52.094;5.112;2023-04-01T12:33:39;100059.50;;;12.76;100.00
62031;BME280;62035;52.094;5.112;2023-04-01T12:36:37;100053.59;;;12.65;100.00
62031;BME280;62035;52.094;5.112;2023-04-01T12:39:37;100029.06;;;12.47;100.00
62031;BME280;62035;52.094;5.112;2023-04-01T12:42:38;100054.31;;;12.59;100.00
62031;BME280;62035;52.094;5.112;2023-04-01T12:45:30;100065.38;;;12.56;100.00
62031;BME280;62035;52.094;5.112;2023-04-01T12:48:15;100070.81;;;12.63;100.00
62031;BME280;62035;52.094;5.112;2023-04-01T12:58:01;100068.03;;;12.56;100.00
62031;BME280;62035;52.094;5.112;2023-04-01T13:00:56;100082.38;;;12.55;100.00
62031;BME280;62035;52.094;5.112;2023-04-01T13:04:12;100079.28;;;12.66;100.00
62031;BME280;62035;52.094;5.112;2023-04-01T13:10:15;100092.69;;;12.58;100.00
62031;BME280;62035;52.094;5.112;2023-04-01T13:13:04;100092.28;;;12.84;100.00
62031;BME280;62035;52.094;5.112;2023-04-01T13:15:56;100088.34;;;13.10;100.00
62031;BME280;62035;52.094;5.112;2023-04-01T13:18:38;100094.81;;;13.45;100.00
62031;BME280;62035;52.094;5.112;2023-04-01T13:21:19;100080.34;;;13.54;100.00
62031;BME280;62035;52.094;5.112;2023-04-01T13:24:00;100088.38;;;13.90;100.00
62031;BME280;62035;52.094;5.112;2023-04-01T13:26:43;100088.19;;;14.13;100.00
62031;BME280;62035;52.094;5.112;2023-04-01T13:29:23;100098.88;;;13.91;100.00
62031;BME280;62035;52.094;5.112;2023-04-01T13:32:05;100102.69;;;13.67;100.00
62031;BME280;62035;52.094;5.112;2023-04-01T13:34:54;100100.81;;;13.47;100.00
62031;BME280;62035;52.094;5.112;2023-04-01T13:37:45;100108.84;;;13.17;100.00
62031;BME280;62035;52.094;5.112;2023-04-01T13:40:33;100122.97;;;13.03;100.00
62031;BME280;62035;52.094;5.112;2023-04-01T13:43:12;100130.50;;;12.85;100.00
62031;BME280;62035;52.094;5.112;2023-04-01T13:46:02;100135.06;;;12.61;100.00
62031;BME280;62035;52.094;5.112;2023-04-01T13:48:54;100144.50;;;12.26;100.00
62031;BME280;62035;52.094;5.112;2023-04-01T13:52:02;100157.75;;;12.12;100.00
62031;BME280;62035;52.094;5.112;2023-04-01T13:55:06;100153.94;;;12.06;100.00
62031;BME280;62035;52.094;5.112;2023-04-01T13:58:02;100158.06;;;12.17;100.00
62031;BME280;62035;52.094;5.112;2023-04-01T14:01:00;100170.19;;;11.96;100.00
62031;BME280;62035;52.094;5.112;2023-04-01T14:07:15;100172.75;;;11.74;100.00
62031;BME280;62035;52.094;5.112;2023-04-01T14:10:07;100178.44;;;11.62;100.00
62031;BME280;62035;52.094;5.112;2023-04-01T14:12:49;100187.75;;;11.75;100.00
62031;BME280;62035;52.094;5.112;2023-04-01T14:15:39;100188.94;;;11.64;100.00
62031;BME280;62035;52.094;5.112;2023-04-01T14:18:41;100196.66;;;11.59;100.00
62031;BME280;62035;52.094;5.112;2023-04-01T14:21:26;100197.66;;;11.58;100.00
62031;BME280;62035;52.094;5.112;2023-04-01T14:24:18;100200.91;;;11.68;100.00
62031;BME280;62035;52.094;5.112;2023-04-01T14:27:11;100207.56;;;11.72;100.00
62031;BME280;62035;52.094;5.112;2023-04-01T14:30:25;100202.81;;;11.59;100.00
62031;BME280;62035;52.094;5.112;2023-04-01T14:33:13;100217.97;;;11.51;100.00
62031;BME280;62035;52.094;5.112;2023-04-01T14:36:03;100217.41;;;11.63;100.00
62031;BME280;62035;52.094;5.112;2023-04-01T14:38:47;100215.56;;;11.72;100.00
62031;BME280;62035;52.094;5.112;2023-04-01T14:41:35;100222.06;;;11.86;100.00
62031;BME280;62035;52.094;5.112;2023-04-01T14:44:35;100232.91;;;11.84;100.00
62031;BME280;62035;52.094;5.112;2023-04-01T14:47:38;100240.88;;;11.92;100.00
62031;BME280;62035;52.094;5.112;2023-04-01T14:50:15;100240.72;;;11.69;100.00
62031;BME280;62035;52.094;5.112;2023-04-01T14:52:47;100244.75;;;11.65;100.00